Time;durP1;ratioP1;P1;durP2;ratioP2;P2;SDS_P1;SDS_P2;PMS_P1;PMS_P2;Temp;Humidity;BMP_temperature;BMP_pressure;BME280_temperature;BME280_humidity;BME280_pressure;Samples;Min_cycle;Max_cycle;Signal;HPM_P1;HPM_P2
2022/10/10 00:01:55;;;;;;;4.63;2.50;;;;;;;5.50;100.00;100327.22;5171468;27;20050;-49
2022/10/10 00:04:22;;;;;;;5.85;2.75;;;;;;;5.51;100.00;100326.13;5171515;27;20497;-49
2022/10/10 00:06:49;;;;;;;5.28;2.30;;;;;;;5.36;100.00;100329.13;5171816;27;20556;-50
2022/10/10 00:09:15;;;;;;;3.42;2.35;;;;;;;5.45;100.00;100311.00;5171976;27;20050;-49
2022/10/10 00:11:41;;;;;;;10.23;3.22;;;;;;;5.50;100.00;100313.63;5175385;27;20050;-49
2022/10/10 00:14:08;;;;;;;8.82;3.00;;;;;;;5.50;100.00;100310.91;5174969;27;20050;-50
2022/10/10 00:16:34;;;;;;;5.05;2.90;;;;;;;5.40;100.00;100311.13;5175053;27;20075;-53
2022/10/10 00:19:00;;;;;;;8.98;2.92;;;;;;;5.47;100.00;100311.50;5174837;27;20054;-49
2022/10/10 00:21:26;;;;;;;3.92;2.50;;;;;;;5.47;100.00;100311.50;5174969;27;20091;-49
2022/10/10 00:23:53;;;;;;;6.18;2.13;;;;;;;5.47;100.00;100316.16;5175050;27;20050;-52
2022/10/10 00:26:20;;;;;;;11.15;3.35;;;;;;;5.43;100.00;100322.19;5175091;27;20053;-49
2022/10/10 00:28:46;;;;;;;4.88;2.42;;;;;;;5.39;100.00;100323.09;5175016;27;20042;-49
2022/10/10 00:31:12;;;;;;;5.28;2.10;;;;;;;5.37;100.00;100322.59;5175052;27;20046;-52
2022/10/10 00:33:38;;;;;;;7.32;2.60;;;;;;;5.35;100.00;100333.75;5174759;27;20046;-50
2022/10/10 00:36:05;;;;;;;15.50;2.38;;;;;;;5.28;100.00;100335.28;5174468;27;20052;-51
2022/10/10 00:38:32;;;;;;;6.85;2.40;;;;;;;5.28;100.00;100335.28;5175015;27;20042;-50
2022/10/10 00:40:59;;;;;;;20.70;2.78;;;;;;;5.23;100.00;100319.88;5174483;27;20098;-50
2022/10/10 00:43:27;;;;;;;9.15;2.47;;;;;;;5.15;100.00;100320.56;5174525;27;20056;-48
2022/10/10 00:45:54;;;;;;;6.72;2.00;;;;;;;5.22;100.00;100312.81;5174670;27;20058;-50
2022/10/10 00:48:24;;;;;;;10.00;2.30;;;;;;;5.24;100.00;100320.69;5174487;27;20050;-49
2022/10/10 00:50:54;;;;;;;6.40;2.17;;;;;;;5.23;100.00;100319.88;5174643;27;20146;-49
2022/10/10 00:53:26;;;;;;;7.47;2.28;;;;;;;5.16;100.00;100322.16;5174296;27;20050;-49
2022/10/10 00:55:53;;;;;;;5.10;2.30;;;;;;;5.17;100.00;100327.31;5174423;27;20053;-50
2022/10/10 00:58:21;;;;;;;8.93;2.60;;;;;;;5.17;100.00;100324.59;5174249;27;20421;-49
2022/10/10 01:00:47;;;;;;;9.27;2.38;;;;;;;5.09;100.00;100322.56;5174159;27;20531;-49
2022/10/10 01:03:14;;;;;;;6.97;2.65;;;;;;;5.16;100.00;100320.28;5174107;27;20054;-49
2022/10/10 01:05:41;;;;;;;11.35;3.35;;;;;;;5.16;100.00;100322.16;5174604;27;20052;-49
2022/10/10 01:08:09;;;;;;;4.38;2.40;;;;;;;5.10;100.00;100328.81;5174118;27;20470;-49
2022/10/10 01:10:43;;;;;;;11.15;2.58;;;;;;;5.12;100.00;100332.81;5174240;27;20054;-50
2022/10/10 01:13:20;;;;;;;5.45;2.15;;;;;;;5.10;100.00;100317.94;5174062;27;20050;-48
2022/10/10 01:15:54;;;;;;;9.52;3.15;;;;;;;5.06;100.00;100322.34;5174076;27;20054;-48
2022/10/10 01:18:29;;;;;;;4.77;2.70;;;;;;;5.03;100.00;100328.38;5174123;27;20049;-50
2022/10/10 01:21:12;;;;;;;5.60;2.28;;;;;;;5.02;100.00;100326.78;5172546;27;20303;-49
2022/10/10 01:24:27;;;;;;;8.00;2.80;;;;;;;4.97;100.00;100322.25;5173915;27;20493;-50
2022/10/10 01:27:29;;;;;;;6.22;2.47;;;;;;;4.98;100.00;100326.56;5124516;27;20046;-50
2022/10/10 01:30:00;;;;;;;4.60;2.30;;;;;;;4.88;100.00;100318.59;5173669;27;20054;-52
2022/10/10 01:32:32;;;;;;;5.93;2.40;;;;;;;4.83;100.00;100316.78;5174276;27;20046;-51
2022/10/10 01:35:12;;;;;;;12.95;3.08;;;;;;;4.84;100.00;100314.88;5173479;27;20118;-50
2022/10/10 01:37:47;;;;;;;8.93;2.80;;;;;;;4.93;100.00;100318.50;5173823;27;20061;-52
2022/10/10 01:40:23;;;;;;;7.05;2.20;;;;;;;4.79;100.00;100314.94;5173642;27;20054;-52
2022/10/10 01:42:53;;;;;;;5.13;2.45;;;;;;;4.84;100.00;100304.00;5173498;27;20053;-52
2022/10/10 01:45:22;;;;;;;6.18;2.50;;;;;;;4.76;100.00;100297.31;5173747;27;20053;-52
2022/10/10 01:47:49;;;;;;;8.57;2.95;;;;;;;4.88;100.00;100299.56;5173473;27;20455;-49
2022/10/10 01:50:18;;;;;;;12.50;2.75;;;;;;;4.88;100.00;100311.25;5173641;27;20106;-52
2022/10/10 01:52:55;;;;;;;7.30;2.40;;;;;;;4.81;100.00;100310.84;5173397;27;20042;-53
2022/10/10 01:55:33;;;;;;;3.78;2.00;;;;;;;4.71;100.00;100305.56;5173331;27;20046;-51
2022/10/10 01:58:17;;;;;;;3.58;2.55;;;;;;;4.81;100.00;100299.97;5173354;27;20054;-51
2022/10/10 02:00:53;;;;;;;9.52;2.97;;;;;;;4.78;100.00;100302.47;5173412;27;20046;-49
2022/10/10 02:03:26;;;;;;;9.98;3.38;;;;;;;4.77;100.00;100322.59;5173637;27;20057;-51
2022/10/10 02:05:58;;;;;;;6.88;2.58;;;;;;;4.71;100.00;100325.41;5173096;27;20046;-48
2022/10/10 02:08:30;;;;;;;8.05;2.65;;;;;;;4.67;100.00;100335.25;5173431;27;20046;-49
2022/10/10 02:10:59;;;;;;;7.82;2.83;;;;;;;4.40;100.00;100335.94;5172969;27;20051;-50
2022/10/10 02:13:33;;;;;;;2.90;2.30;;;;;;;4.60;100.00;100325.84;5173182;27;20046;-50
2022/10/10 02:16:05;;;;;;;7.50;2.47;;;;;;;4.64;100.00;100327.69;5173163;27;20098;-49
2022/10/10 02:18:33;;;;;;;4.40;2.20;;;;;;;4.56;100.00;100327.53;5172928;27;20060;-51
2022/10/10 02:21:02;;;;;;;6.55;2.78;;;;;;;4.44;100.00;100330.72;5172919;27;20098;-52
2022/10/10 02:23:29;;;;;;;7.57;2.38;;;;;;;4.59;100.00;100314.19;5172861;27;20042;-51
2022/10/10 02:25:56;;;;;;;4.70;2.38;;;;;;;4.60;100.00;100328.56;5172825;27;20050;-50
2022/10/10 02:28:25;;;;;;;5.03;2.45;;;;;;;4.49;100.00;100327.91;5172710;27;20057;-49
2022/10/10 02:30:57;;;;;;;10.50;2.22;;;;;;;4.41;100.00;100309.59;5173180;27;20126;-49
2022/10/10 02:33:29;;;;;;;6.70;2.40;;;;;;;4.53;100.00;100300.97;5172368;27;20053;-48
2022/10/10 02:35:57;;;;;;;4.72;2.45;;;;;;;4.48;100.00;100294.53;5172892;27;20069;-50
2022/10/10 02:38:24;;;;;;;7.55;2.63;;;;;;;4.56;100.00;100301.19;5172862;27;20050;-48
2022/10/10 02:40:52;;;;;;;4.55;2.60;;;;;;;4.51;100.00;100320.28;5172620;27;20466;-49
2022/10/10 02:43:19;;;;;;;6.38;2.60;;;;;;;4.45;100.00;100330.41;5172764;27;20145;-49
2022/10/10 02:45:46;;;;;;;4.55;2.58;;;;;;;4.37;100.00;100338.44;5172556;27;20046;-48
2022/10/10 02:48:12;;;;;;;4.07;2.70;;;;;;;4.24;100.00;100356.28;5172740;27;20094;-49
2022/10/10 02:50:39;;;;;;;5.45;2.70;;;;;;;4.24;100.00;100348.94;5172425;27;20080;-49
2022/10/10 02:53:05;;;;;;;6.75;2.65;;;;;;;4.25;100.00;100352.44;5172437;27;20053;-50
2022/10/10 02:55:31;;;;;;;11.63;2.50;;;;;;;4.23;100.00;100369.03;5172389;27;20425;-50
2022/10/10 02:57:58;;;;;;;8.35;3.05;;;;;;;4.18;100.00;100363.66;5172762;27;20042;-49
2022/10/10 03:00:24;;;;;;;12.07;3.20;;;;;;;4.08;100.00;100371.97;5172081;27;20501;-49
2022/10/10 03:02:50;;;;;;;8.75;2.47;;;;;;;4.09;100.00;100368.13;5172289;27;20134;-49
2022/10/10 03:05:16;;;;;;;5.18;2.92;;;;;;;4.08;100.00;100363.00;5172436;27;20053;-49
2022/10/10 03:07:43;;;;;;;4.95;2.30;;;;;;;4.04;100.00;100372.84;5172201;27;20050;-48
2022/10/10 03:10:09;;;;;;;4.38;2.60;;;;;;;3.97;100.00;100379.44;5172434;27;20054;-53
2022/10/10 03:12:36;;;;;;;6.55;2.83;;;;;;;3.90;100.00;100389.00;5172157;27;20046;-48
2022/10/10 03:15:03;;;;;;;8.80;2.70;;;;;;;3.88;100.00;100397.44;5172358;27;20416;-49
2022/10/10 03:17:29;;;;;;;6.72;2.78;;;;;;;3.84;100.00;100393.69;5172246;27;20094;-52
2022/10/10 03:19:56;;;;;;;6.45;2.78;;;;;;;3.76;100.00;100394.31;5172156;27;20501;-50
2022/10/10 03:22:22;;;;;;;7.65;2.65;;;;;;;3.78;100.00;100394.84;5172336;27;20169;-49
2022/10/10 03:24:49;;;;;;;9.05;2.88;;;;;;;3.73;100.00;100398.44;5172587;27;20042;-49
2022/10/10 03:27:15;;;;;;;4.55;2.65;;;;;;;3.67;100.00;100402.31;5172144;27;20516;-49
2022/10/10 03:29:41;;;;;;;4.88;2.38;;;;;;;3.68;100.00;100406.63;5172198;27;20057;-48
2022/10/10 03:32:07;;;;;;;6.15;2.50;;;;;;;3.63;100.00;100416.72;5172172;27;20046;-48
2022/10/10 03:34:34;;;;;;;6.97;2.88;;;;;;;3.51;100.00;100409.78;5171935;27;20042;-49
2022/10/10 03:37:00;;;;;;;7.93;2.90;;;;;;;3.37;100.00;100411.56;5171958;27;20047;-48
2022/10/10 03:39:26;;;;;;;5.90;2.75;;;;;;;3.49;100.00;100384.84;5171666;27;20061;-51
2022/10/10 03:41:53;;;;;;;8.43;3.80;;;;;;;3.47;100.00;100376.22;5171899;27;20057;-49
2022/10/10 03:44:19;;;;;;;4.75;2.92;;;;;;;3.50;100.00;100372.13;5172755;27;20098;-52
2022/10/10 03:46:45;;;;;;;5.35;3.00;;;;;;;3.52;100.00;100378.06;5175472;27;20046;-48
2022/10/10 03:49:11;;;;;;;3.65;2.35;;;;;;;3.42;100.00;100381.69;5175290;27;20054;-52
2022/10/10 03:51:38;;;;;;;11.23;2.97;;;;;;;3.43;100.00;100393.34;5175868;27;20421;-50
2022/10/10 03:54:04;;;;;;;8.00;3.10;;;;;;;3.41;100.00;100398.25;5175268;27;20046;-48
2022/10/10 03:56:30;;;;;;;8.45;3.17;;;;;;;3.38;100.00;100398.81;5175682;27;20042;-53
2022/10/10 03:58:59;;;;;;;6.22;2.78;;;;;;;3.41;100.00;100392.81;5175420;27;20050;-50
2022/10/10 04:01:25;;;;;;;3.67;2.80;;;;;;;3.38;100.00;100401.53;5175152;27;20082;-49
2022/10/10 04:03:52;;;;;;;4.95;2.90;;;;;;;3.35;100.00;100396.69;5175324;27;20102;-52
2022/10/10 04:06:18;;;;;;;7.00;2.92;;;;;;;3.29;100.00;100414.88;5175078;27;20448;-50
2022/10/10 04:08:44;;;;;;;4.43;3.15;;;;;;;3.29;100.00;100423.00;5175202;27;20046;-48
2022/10/10 04:11:10;;;;;;;5.35;2.75;;;;;;;3.28;100.00;100422.22;5175054;27;20053;-48
2022/10/10 04:13:37;;;;;;;10.95;3.13;;;;;;;3.24;100.00;100423.88;5175173;27;20046;-50
2022/10/10 04:16:04;;;;;;;6.63;3.35;;;;;;;3.28;100.00;100430.34;5175053;27;20076;-49
2022/10/10 04:18:31;;;;;;;7.00;2.80;;;;;;;3.26;100.00;100437.94;5174954;27;20049;-48
2022/10/10 04:20:57;;;;;;;9.63;3.00;;;;;;;3.26;100.00;100418.16;5174747;27;20058;-48
2022/10/10 04:23:23;;;;;;;4.82;2.70;;;;;;;3.25;100.00;100433.63;5175013;27;20046;-49
2022/10/10 04:25:51;;;;;;;4.88;3.10;;;;;;;3.28;100.00;100427.63;5174773;27;20063;-50
2022/10/10 04:28:17;;;;;;;5.57;2.90;;;;;;;3.30;100.00;100433.59;5174989;27;20056;-49
2022/10/10 04:30:45;;;;;;;7.03;3.50;;;;;;;3.28;100.00;100422.22;5174689;27;20065;-50
2022/10/10 04:33:12;;;;;;;6.70;3.05;;;;;;;3.27;100.00;100439.56;5174714;27;20544;-51
2022/10/10 04:35:38;;;;;;;9.65;3.33;;;;;;;3.27;100.00;100434.16;5174722;27;20054;-49
2022/10/10 04:38:04;;;;;;;3.40;2.78;;;;;;;3.26;100.00;100439.84;5174609;27;20046;-51
2022/10/10 04:40:31;;;;;;;4.75;3.15;;;;;;;3.27;100.00;100445.00;5174431;27;20050;-49
2022/10/10 04:42:57;;;;;;;8.27;3.40;;;;;;;3.28;100.00;100452.03;5174423;27;20532;-48
2022/10/10 04:45:25;;;;;;;6.07;3.47;;;;;;;3.24;100.00;100445.56;5174400;27;20050;-50
2022/10/10 04:47:51;;;;;;;5.32;3.10;;;;;;;3.27;100.00;100445.00;5174289;27;20070;-51
2022/10/10 04:50:18;;;;;;;6.50;3.40;;;;;;;3.33;100.00;100447.66;5174647;27;20050;-49
2022/10/10 04:52:45;;;;;;;6.65;3.20;;;;;;;3.34;100.00;100457.41;5174294;27;20405;-48
2022/10/10 04:55:11;;;;;;;7.95;3.67;;;;;;;3.35;100.00;100454.41;5174264;27;20501;-51
2022/10/10 04:57:37;;;;;;;7.57;3.10;;;;;;;3.41;100.00;100455.19;5174319;27;20533;-48
2022/10/10 05:00:05;;;;;;;5.70;3.30;;;;;;;3.41;100.00;100457.88;5174140;27;20054;-58
2022/10/10 05:02:31;;;;;;;7.50;3.72;;;;;;;3.43;100.00;100470.06;5174127;27;20103;-55
2022/10/10 05:04:57;;;;;;;6.45;3.08;;;;;;;3.46;100.00;100463.25;5174001;27;20054;-54
2022/10/10 05:07:24;;;;;;;12.65;3.67;;;;;;;3.50;100.00;100467.03;5174066;27;20549;-57
2022/10/10 05:09:51;;;;;;;4.07;3.10;;;;;;;3.58;100.00;100469.09;5174071;27;20065;-54
2022/10/10 05:12:17;;;;;;;9.60;3.78;;;;;;;3.66;100.00;100471.19;5174023;27;20421;-59
2022/10/10 05:14:43;;;;;;;11.65;4.28;;;;;;;3.78;100.00;100471.59;5174129;27;20077;-59
2022/10/10 05:17:09;;;;;;;8.73;4.03;;;;;;;4.32;100.00;100464.19;5174557;27;20050;-55
2022/10/10 05:19:35;;;;;;;9.15;4.35;;;;;;;5.00;100.00;100470.28;5173730;27;20056;-56
2022/10/10 05:22:02;;;;;;;10.48;3.92;;;;;;;5.70;100.00;100521.91;5174183;27;20421;-53
2022/10/10 05:24:29;;;;;;;8.48;3.67;;;;;;;6.52;100.00;100574.84;5173712;27;20062;-59
2022/10/10 05:26:55;;;;;;;4.85;3.00;;;;;;;7.31;100.00;100659.09;5173802;27;20071;-54
2022/10/10 05:29:22;;;;;;;6.47;3.10;;;;;;;7.90;100.00;100727.38;5174003;27;20061;-56
2022/10/10 05:31:48;;;;;;;4.32;2.63;;;;;;;8.41;100.00;100679.72;5173683;27;20142;-56
2022/10/10 05:34:14;;;;;;;2.30;1.90;;;;;;;8.93;100.00;100404.50;5173643;27;20054;-57
2022/10/10 05:36:41;;;;;;;4.18;2.47;;;;;;;9.62;100.00;100187.22;5173574;27;20493;-59
2022/10/10 05:39:07;;;;;;;4.90;2.63;;;;;;;9.94;100.00;99853.47;5173399;27;20046;-58
2022/10/10 05:41:35;;;;;;;5.60;2.65;;;;;;;10.73;100.00;99697.56;5173231;27;20061;-57
2022/10/10 05:44:01;;;;;;;4.10;2.15;;;;;;;10.94;100.00;99460.59;5173410;27;20050;-56
2022/10/10 05:46:27;;;;;;;4.38;2.55;;;;;;;11.28;100.00;99352.69;5173369;27;20042;-57
2022/10/10 05:48:53;;;;;;;4.97;2.83;;;;;;;11.67;100.00;99296.88;5173664;27;20046;-61
2022/10/10 05:51:20;;;;;;;4.90;2.85;;;;;;;11.98;100.00;99282.81;5173317;27;20046;-62
2022/10/10 05:53:47;;;;;;;5.63;2.78;;;;;;;12.22;100.00;99297.28;5172998;27;20046;-61
2022/10/10 05:56:15;;;;;;;2.70;2.08;;;;;;;12.72;100.00;99317.13;5173306;27;20421;-62
2022/10/10 05:58:42;;;;;;;6.13;2.95;;;;;;;12.78;100.00;99323.91;5173208;27;20061;-62
2022/10/10 06:01:08;;;;;;;7.55;2.65;;;;;;;13.09;100.00;99317.16;5172907;27;20058;-60
2022/10/10 06:03:35;;;;;;;4.20;2.80;;;;;;;13.19;100.00;99357.78;5173018;27;20050;-59
2022/10/10 06:06:02;;;;;;;8.43;2.92;;;;;;;13.51;100.00;99379.34;5172976;27;20054;-62
2022/10/10 06:08:29;;;;;;;6.68;3.03;;;;;;;13.88;100.00;99389.50;5172080;27;20046;-61
2022/10/10 06:11:01;;;;;;;6.88;3.38;;;;;;;14.07;100.00;99416.84;5173273;27;20098;-62
2022/10/10 06:13:27;;;;;;;3.67;2.92;;;;;;;14.23;100.00;99466.19;5172786;27;20050;-62
2022/10/10 06:15:54;;;;;;;7.40;3.97;;;;;;;14.20;100.00;99461.44;5173237;27;20069;-62
2022/10/10 06:18:20;;;;;;;5.15;2.95;;;;;;;13.82;100.00;99484.72;5172854;27;20109;-58
2022/10/10 06:20:46;;;;;;;5.40;2.90;;;;;;;13.93;100.00;99462.75;5172638;27;20080;-63
2022/10/10 06:23:13;;;;;;;9.23;3.55;;;;;;;14.44;100.00;99446.25;5172727;27;20505;-63
2022/10/10 06:25:39;;;;;;;6.30;3.28;;;;;;;14.69;100.00;99479.53;5172920;27;20066;-62
2022/10/10 06:28:05;;;;;;;4.85;2.80;;;;;;;14.91;100.00;99510.81;5172497;27;20050;-63
2022/10/10 06:30:33;;;;;;;7.90;3.72;;;;;;;15.26;100.00;99545.31;5172617;27;20420;-63
2022/10/10 06:33:00;;;;;;;7.03;3.10;;;;;;;15.20;100.00;99553.19;5172574;27;20050;-63
2022/10/10 06:35:26;;;;;;;6.03;2.70;;;;;;;15.91;100.00;99594.19;5172495;27;20050;-63
2022/10/10 06:37:52;;;;;;;7.10;3.08;;;;;;;15.47;100.00;99613.72;5172455;27;20052;-63
2022/10/10 06:40:19;;;;;;;5.97;3.97;;;;;;;15.81;100.00;99583.88;5172732;27;20056;-63
2022/10/10 06:42:45;;;;;;;6.75;3.25;;;;;;;16.08;100.00;99606.47;5172381;27;20529;-63
2022/10/10 06:45:11;;;;;;;9.50;5.03;;;;;;;16.23;100.00;99607.31;5172617;27;20057;-63
2022/10/10 06:47:38;;;;;;;8.68;3.58;;;;;;;16.44;100.00;99628.69;5172407;27;20046;-63
2022/10/10 06:50:05;;;;;;;6.53;4.07;;;;;;;16.61;100.00;99627.91;5172572;27;20058;-62
2022/10/10 06:52:32;;;;;;;7.13;3.85;;;;;;;16.89;100.00;99654.03;5172302;27;20507;-64
2022/10/10 06:54:58;;;;;;;8.73;3.47;;;;;;;16.85;100.00;99672.66;5172392;27;20083;-63
2022/10/10 06:57:24;;;;;;;4.57;3.38;;;;;;;16.86;100.00;99650.13;5172168;27;20050;-63
2022/10/10 06:59:50;;;;;;;5.88;3.53;;;;;;;17.25;100.00;99696.38;5171995;27;20046;-63
2022/10/10 07:02:17;;;;;;;6.30;3.13;;;;;;;17.32;100.00;99707.44;5172231;27;20053;-63
2022/10/10 07:04:43;;;;;;;5.93;3.58;;;;;;;17.60;100.00;99751.00;5171981;27;20042;-62
2022/10/10 07:07:10;;;;;;;7.90;3.33;;;;;;;17.80;100.00;99754.16;5171895;27;20050;-63
2022/10/10 07:09:36;;;;;;;4.75;3.08;;;;;;;18.09;100.00;99760.44;5171988;27;20145;-64
2022/10/10 07:12:03;;;;;;;12.55;3.42;;;;;;;18.09;100.00;99748.53;5171804;27;20057;-64
2022/10/10 07:14:29;;;;;;;8.10;4.32;;;;;;;18.45;100.00;99781.69;5172011;27;20141;-63
2022/10/10 07:16:55;;;;;;;19.95;11.35;;;;;;;19.34;100.00;99827.66;5172155;27;20046;-65
2022/10/10 07:19:23;;;;;;;7.18;5.38;;;;;;;18.79;100.00;99804.16;5174280;27;20389;-65
2022/10/10 07:21:50;;;;;;;15.57;7.15;;;;;;;18.70;100.00;99804.59;5175837;27;20069;-64
2022/10/10 07:24:17;;;;;;;11.20;7.35;;;;;;;18.98;100.00;99830.66;5175737;27;20073;-65
2022/10/10 07:26:43;;;;;;;28.63;25.73;;;;;;;19.19;100.00;99841.66;5175586;27;20490;-64
2022/10/10 07:29:09;;;;;;;15.77;9.38;;;;;;;18.92;100.00;99833.06;5175582;27;20053;-64
2022/10/10 07:31:35;;;;;;;12.13;7.40;;;;;;;19.33;100.00;99834.44;5175769;27;20069;-63
2022/10/10 07:34:01;;;;;;;29.98;23.02;;;;;;;19.27;100.00;99845.97;5176090;27;20098;-64
2022/10/10 07:36:28;;;;;;;19.13;9.80;;;;;;;19.32;100.00;99855.06;5175735;27;20539;-59
2022/10/10 07:38:54;;;;;;;8.82;7.18;;;;;;;19.54;100.00;99861.28;5175808;27;20058;-63
2022/10/10 07:41:21;;;;;;;13.88;10.27;;;;;;;19.68;100.00;99833.38;5175412;27;20052;-63
2022/10/10 07:43:52;;;;;;;9.07;5.13;;;;;;;19.60;100.00;99863.22;5175650;27;20061;-63
2022/10/10 07:46:19;;;;;;;10.88;4.70;;;;;;;19.54;100.00;99870.41;5175159;27;20046;-63
2022/10/10 07:48:47;;;;;;;4.15;2.97;;;;;;;19.43;100.00;99864.16;5175493;27;20432;-63
2022/10/10 07:51:14;;;;;;;5.38;3.20;;;;;;;19.58;100.00;99873.94;5175187;27;20513;-63
2022/10/10 07:53:41;;;;;;;8.18;3.30;;;;;;;19.83;100.00;99895.28;5175085;27;20531;-63
2022/10/10 07:56:09;;;;;;;6.55;3.53;;;;;;;19.93;100.00;99877.69;5174892;27;20564;-63
2022/10/10 07:58:36;;;;;;;5.20;3.30;;;;;;;19.72;100.00;99887.00;5175059;27;20042;-63
2022/10/10 08:01:04;;;;;;;3.70;2.80;;;;;;;19.75;100.00;99884.19;5174835;27;20050;-63
2022/10/10 08:03:30;;;;;;;3.97;3.35;;;;;;;20.42;100.00;99889.53;5175084;27;20047;-63
2022/10/10 08:05:56;;;;;;;7.32;2.40;;;;;;;20.28;100.00;99923.09;5175321;27;20417;-63
2022/10/10 08:08:23;;;;;;;7.68;3.17;;;;;;;20.62;100.00;99923.16;5174813;27;20473;-63
2022/10/10 08:10:49;;;;;;;4.72;3.25;;;;;;;20.67;100.00;99920.72;5174809;27;20076;-64
2022/10/10 08:13:15;;;;;;;6.70;3.28;;;;;;;20.93;100.00;99918.44;5174454;27;20071;-64
2022/10/10 08:15:42;;;;;;;5.35;2.75;;;;;;;20.76;100.00;99919.41;5174900;27;20405;-64
2022/10/10 08:18:08;;;;;;;3.53;2.47;;;;;;;21.03;100.00;99939.81;5174815;27;20046;-63
2022/10/10 08:20:35;;;;;;;5.55;2.50;;;;;;;21.20;100.00;99953.94;5174394;27;20042;-64
2022/10/10 08:23:01;;;;;;;3.70;2.22;;;;;;;21.03;100.00;99934.25;5174719;27;20047;-65
2022/10/10 08:25:27;;;;;;;4.07;2.33;;;;;;;21.10;100.00;99934.16;5174919;27;20212;-67
2022/10/10 08:27:53;;;;;;;4.03;2.40;;;;;;;20.50;100.00;99952.31;5174872;27;20046;-64
2022/10/10 08:30:19;;;;;;;7.22;3.70;;;;;;;20.68;100.00;99933.44;5173579;27;20527;-63
2022/10/10 08:32:46;;;;;;;5.28;2.55;;;;;;;20.82;100.00;99932.47;5174565;27;20050;-63
2022/10/10 08:35:12;;;;;;;7.40;2.63;;;;;;;20.64;100.00;99932.69;5174171;27;20053;-62
2022/10/10 08:37:39;;;;;;;3.65;2.13;;;;;;;20.76;100.00;99962.03;5174391;27;20067;-63
2022/10/10 08:40:06;;;;;;;4.85;1.98;;;;;;;20.40;99.77;99967.13;5174371;27;20056;-63
2022/10/10 08:42:37;;;;;;;6.63;2.38;;;;;;;20.64;100.00;99966.13;5174616;27;20042;-62
2022/10/10 08:45:11;;;;;;;3.67;2.00;;;;;;;20.85;100.00;99953.16;5174801;27;20065;-63
2022/10/10 08:47:41;;;;;;;3.47;1.63;;;;;;;20.65;97.77;99973.25;5174350;27;20046;-63
2022/10/10 08:50:15;;;;;;;3.53;1.80;;;;;;;20.65;87.66;99984.41;5174398;27;20564;-62
2022/10/10 08:52:47;;;;;;;2.83;1.35;;;;;;;20.74;83.05;99992.28;5174257;27;20050;-63
2022/10/10 08:55:18;;;;;;;3.22;1.40;;;;;;;20.74;80.72;100009.00;5174525;27;20542;-63
2022/10/10 08:57:49;;;;;;;1.90;1.50;;;;;;;20.88;82.16;99999.72;5174094;27;20108;-63
2022/10/10 09:00:19;;;;;;;0.85;0.85;;;;;;;20.59;76.57;100008.38;5174518;27;20057;-62
2022/10/10 09:02:50;;;;;;;1.65;0.90;;;;;;;20.58;71.56;100017.91;5174076;27;20069;-63
2022/10/10 09:05:20;;;;;;;4.65;1.40;;;;;;;20.10;74.87;100010.34;5174180;27;20046;-63
2022/10/10 09:08:12;;;;;;;2.30;1.20;;;;;;;20.43;76.78;100008.88;5174099;27;20056;-63
2022/10/10 09:10:53;;;;;;;3.38;1.48;;;;;;;20.78;77.58;100004.19;5174072;27;20406;-63
2022/10/10 09:13:30;;;;;;;1.23;1.02;;;;;;;21.13;69.45;100021.75;5174179;27;20050;-62
2022/10/10 09:15:59;;;;;;;4.40;1.10;;;;;;;20.25;68.64;100026.94;5173899;27;20050;-62
2022/10/10 09:18:42;;;;;;;1.00;1.00;;;;;;;18.90;70.58;100018.84;5174046;27;20085;-63
2022/10/10 09:21:15;;;;;;;0.98;0.90;;;;;;;18.68;72.13;100011.72;5174083;27;20046;-63
2022/10/10 09:23:46;;;;;;;3.60;0.90;;;;;;;19.08;73.84;100015.22;5173701;27;20053;-62
2022/10/10 09:26:15;;;;;;;3.80;1.00;;;;;;;19.34;77.83;100009.16;5174012;27;20493;-62
2022/10/10 09:28:46;;;;;;;1.23;1.13;;;;;;;19.12;77.71;100000.09;5173755;27;20110;-62
2022/10/10 09:31:17;;;;;;;1.23;1.13;;;;;;;19.20;74.83;100004.47;5173945;27;20060;-62
2022/10/10 09:33:47;;;;;;;1.08;1.00;;;;;;;19.77;71.97;100008.19;5173678;27;20374;-62
2022/10/10 09:36:19;;;;;;;2.75;1.10;;;;;;;19.72;68.78;100020.50;5173671;27;20556;-62
2022/10/10 09:38:49;;;;;;;1.13;0.90;;;;;;;19.65;70.13;100017.78;5173304;27;20406;-62
2022/10/10 09:41:20;;;;;;;1.13;1.00;;;;;;;19.84;76.91;100010.91;5172841;27;20106;-63
2022/10/10 09:43:46;;;;;;;2.78;1.38;;;;;;;19.86;75.49;100005.72;5172846;27;20050;-62
2022/10/10 09:46:13;;;;;;;1.77;1.35;;;;;;;19.81;77.25;100006.16;5173250;27;20141;-62
2022/10/10 09:48:41;;;;;;;1.63;1.50;;;;;;;20.07;74.47;100011.16;5173497;27;20133;-62
2022/10/10 09:51:12;;;;;;;3.13;1.30;;;;;;;19.94;75.90;100008.06;5173325;27;20094;-62
2022/10/10 09:53:39;;;;;;;1.65;1.30;;;;;;;19.81;75.55;100017.31;5173586;27;20046;-61
2022/10/10 09:56:08;;;;;;;3.58;1.60;;;;;;;20.19;78.79;99999.53;5173195;27;20046;-62
2022/10/10 09:58:39;;;;;;;1.73;1.50;;;;;;;19.58;79.93;99999.09;5173884;27;20046;-62
2022/10/10 10:01:17;;;;;;;2.13;1.30;;;;;;;19.65;78.31;99999.09;5173127;27;20102;-62
2022/10/10 10:04:03;;;;;;;8.25;2.15;;;;;;;19.33;83.73;99990.13;5173205;27;20129;-61
2022/10/10 10:06:29;;;;;;;2.70;2.00;;;;;;;19.54;86.92;99980.88;5173059;27;20050;-61
2022/10/10 10:09:01;;;;;;;4.53;1.50;;;;;;;19.78;84.39;99985.50;5173059;27;20099;-61
2022/10/10 10:11:31;;;;;;;3.75;1.35;;;;;;;19.66;85.92;99986.78;5173220;27;20060;-61
2022/10/10 10:14:01;;;;;;;1.90;1.35;;;;;;;19.67;90.69;99979.22;5172937;27;20448;-61
2022/10/10 10:16:33;;;;;;;2.47;1.30;;;;;;;19.71;89.67;99969.66;5173029;27;20406;-61
2022/10/10 10:18:59;;;;;;;2.88;1.25;;;;;;;19.09;84.88;99973.13;5172864;27;20050;-61
2022/10/10 10:21:26;;;;;;;3.50;1.02;;;;;;;18.69;86.66;99975.19;5172646;27;20050;-62
2022/10/10 10:23:56;;;;;;;1.45;1.30;;;;;;;18.75;84.86;99976.41;5172670;27;20501;-61
2022/10/10 10:26:26;;;;;;;2.65;1.00;;;;;;;18.80;78.30;99991.88;5172936;27;20059;-60
2022/10/10 10:28:53;;;;;;;1.90;1.00;;;;;;;18.62;82.30;99982.75;5172715;27;20047;-61
2022/10/10 10:31:36;;;;;;;2.05;1.13;;;;;;;18.86;83.73;99981.94;5172423;27;20054;-61
2022/10/10 10:34:18;;;;;;;3.28;1.92;;;;;;;18.86;81.01;99986.69;5172992;27;20053;-60
2022/10/10 10:36:53;;;;;;;3.00;1.27;;;;;;;18.72;89.78;99973.63;5172620;27;20485;-61
2022/10/10 10:39:37;;;;;;;1.13;1.00;;;;;;;19.07;90.78;99960.84;5172743;27;20046;-60
2022/10/10 10:42:14;;;;;;;2.30;1.98;;;;;;;19.02;91.98;99950.91;5172392;27;20046;-61
2022/10/10 10:44:44;;;;;;;5.97;3.25;;;;;;;18.78;85.08;99963.69;5172408;27;20046;-60
2022/10/10 10:47:26;;;;;;;7.57;1.27;;;;;;;18.73;86.76;99962.13;5172584;27;20076;-60
2022/10/10 10:50:02;;;;;;;5.00;3.00;;;;;;;18.45;93.83;99956.59;5172238;27;20049;-60
2022/10/10 10:52:42;;;;;;;2.80;1.10;;;;;;;18.43;91.07;99951.47;5172952;27;20632;-61
2022/10/10 10:55:19;;;;;;;3.50;1.10;;;;;;;18.61;94.48;99948.63;5172033;27;20049;-59
2022/10/10 10:58:10;;;;;;;1.15;0.80;;;;;;;18.45;98.01;99939.94;5172109;27;20053;-59
2022/10/10 11:00:45;;;;;;;1.20;0.90;;;;;;;18.23;100.00;99923.34;5154748;27;20057;-59
2022/10/10 11:03:24;;;;;;;1.30;0.82;;;;;;;17.85;100.00;99930.47;5172076;27;20501;-58
2022/10/10 11:05:58;;;;;;;0.75;0.70;;;;;;;17.44;100.00;99905.84;5172319;27;20050;-57
2022/10/10 11:08:40;;;;;;;1.95;1.10;;;;;;;17.44;100.00;99911.38;5172185;27;20065;-59
2022/10/10 11:11:29;;;;;;;1.45;0.80;;;;;;;17.07;100.00;99895.84;5172120;27;20058;-57
2022/10/10 11:14:00;;;;;;;0.80;0.80;;;;;;;16.54;100.00;99909.44;5172223;27;20049;-59
2022/10/10 11:16:31;;;;;;;2.42;0.90;;;;;;;16.22;100.00;99910.00;5172109;27;20050;-57
2022/10/10 11:19:08;;;;;;;2.33;1.05;;;;;;;15.72;100.00;99873.69;5171952;27;20046;-58
2022/10/10 11:21:40;;;;;;;2.10;0.85;;;;;;;15.53;100.00;99886.53;5171702;27;20072;-60
2022/10/10 11:24:12;;;;;;;2.45;0.90;;;;;;;15.19;100.00;99885.78;5172076;27;20405;-59
2022/10/10 11:26:45;;;;;;;1.25;1.13;;;;;;;15.25;100.00;99875.19;5171888;27;20046;-56
2022/10/10 11:29:17;;;;;;;1.70;1.00;;;;;;;15.20;100.00;99867.25;5172026;27;20050;-56
2022/10/10 11:31:50;;;;;;;3.33;2.47;;;;;;;14.79;100.00;99842.34;5171725;27;20046;-59
2022/10/10 11:34:21;;;;;;;2.53;1.92;;;;;;;14.82;100.00;99839.63;5171499;27;20042;-58